Airfield :
LOGIN :

Register | Disclaimer

   EN    FR    IT 

 










Legend :    VFR   Marginal VFR   IFR   Intensive IFR   Very Intensive IFR
Visi :
Ceiling :
>= 8 km
>= 3000ft
5 to 8 km
1000 to 3000 ft
1500m to 5 km
500 to 1000 ft
800 to 1500m
200 to 500 ft
< 800m
< 200 ft
Symbols :   Thunderstorms  Fog  Heavy snow  Heavy precipitations  Wind > 20 kt
SIGMETs :     Misc.  Thunderstorms  Icing  Turbulence  Mountain Waves  Volcanic Ashes






- Airport Elevation : 1516 ft
- IATA code : AGB


EDMA - Augsburg

CURRENT METAR :
  • 250920Z 06009KT 020V100 CAVOK 23/13 Q1014

EXPIRED METARs :
  • 250850Z 08012KT CAVOK 22/12 Q1014
  • 250820Z 06011KT 030V100 CAVOK 22/13 Q1014
  • 250750Z 05010KT 030V090 CAVOK 21/13 Q1014
  • 250720Z 07010KT 040V100 CAVOK 21/13 Q1014
  • 250650Z COR 06008KT CAVOK 20/13 Q1015
  • 250620Z 07007KT 040V110 CAVOK 19/12 Q1015
  • 250550Z 07006KT CAVOK 18/13 Q1015
  • 250520Z 07007KT CAVOK 17/12 Q1015
  • 250450Z 06004KT 010V110 CAVOK 16/12 Q1015

TAF TAF EDMA
Valid from the 25 at 09:00 until the 25 at 18:00 UTC


250800Z 2509/2518 06009KT CAVOK



MET'MAP, your aeronautical weather chart ! - Copyright ORBIFLY December 2007 - Disclaimer

ORBIFLY MET'MAP TEAM :

Programming & Development : Alexandra Zaïnal
Original concept : Baudouin d'Aumeries
Technical & hardware support : Manuel Goepfert
Assistance : Marc-Olivier Méhu




SOURCES & CREDITS :

   NOAA